sensor_id;sensor_type;location;lat;lon;timestamp;P1;durP1;ratioP1;P2;durP2;ratioP2
60730;SDS011;46580;52.114;11.674;2023-02-26T00:00:54;4.30;;;0.67;;
60730;SDS011;46580;52.114;11.674;2023-02-26T00:03:20;2.57;;;0.63;;
60730;SDS011;46580;52.114;11.674;2023-02-26T00:05:46;2.30;;;0.87;;
60730;SDS011;46580;52.114;11.674;2023-02-26T00:08:12;2.53;;;0.70;;
60730;SDS011;46580;52.114;11.674;2023-02-26T00:10:37;1.03;;;0.40;;
60730;SDS011;46580;52.114;11.674;2023-02-26T00:13:03;1.10;;;0.80;;
60730;SDS011;46580;52.114;11.674;2023-02-26T00:15:28;2.33;;;0.73;;
60730;SDS011;46580;52.114;11.674;2023-02-26T00:17:58;1.17;;;0.77;;
60730;SDS011;46580;52.114;11.674;2023-02-26T00:20:29;6.67;;;1.00;;
60730;SDS011;46580;52.114;11.674;2023-02-26T00:22:55;0.70;;;0.40;;
60730;SDS011;46580;52.114;11.674;2023-02-26T00:25:21;4.43;;;0.90;;
60730;SDS011;46580;52.114;11.674;2023-02-26T00:27:46;1.50;;;0.60;;
60730;SDS011;46580;52.114;11.674;2023-02-26T00:30:12;2.30;;;0.73;;
60730;SDS011;46580;52.114;11.674;2023-02-26T00:32:38;2.57;;;0.80;;
60730;SDS011;46580;52.114;11.674;2023-02-26T00:35:05;1.50;;;0.67;;
60730;SDS011;46580;52.114;11.674;2023-02-26T00:37:37;3.20;;;0.77;;
60730;SDS011;46580;52.114;11.674;2023-02-26T00:43:08;3.25;;;1.10;;
60730;SDS011;46580;52.114;11.674;2023-02-26T00:45:46;2.70;;;0.60;;
60730;SDS011;46580;52.114;11.674;2023-02-26T00:51:20;1.00;;;0.40;;
60730;SDS011;46580;52.114;11.674;2023-02-26T00:53:43;2.15;;;0.70;;
60730;SDS011;46580;52.114;11.674;2023-02-26T00:56:16;5.00;;;0.97;;
60730;SDS011;46580;52.114;11.674;2023-02-26T00:58:43;2.77;;;0.70;;
60730;SDS011;46580;52.114;11.674;2023-02-26T01:01:09;1.48;;;0.50;;
60730;SDS011;46580;52.114;11.674;2023-02-26T01:03:34;1.33;;;0.67;;
60730;SDS011;46580;52.114;11.674;2023-02-26T01:06:01;2.65;;;1.00;;
60730;SDS011;46580;52.114;11.674;2023-02-26T01:08:31;1.53;;;0.70;;
60730;SDS011;46580;52.114;11.674;2023-02-26T01:11:02;1.53;;;0.57;;
60730;SDS011;46580;52.114;11.674;2023-02-26T01:13:28;4.00;;;0.97;;
60730;SDS011;46580;52.114;11.674;2023-02-26T01:16:04;0.83;;;0.57;;
60730;SDS011;46580;52.114;11.674;2023-02-26T01:18:47;4.80;;;1.00;;
60730;SDS011;46580;52.114;11.674;2023-02-26T01:21:20;1.87;;;0.83;;
60730;SDS011;46580;52.114;11.674;2023-02-26T01:23:55;2.57;;;0.87;;
60730;SDS011;46580;52.114;11.674;2023-02-26T01:26:22;1.80;;;0.70;;
60730;SDS011;46580;52.114;11.674;2023-02-26T01:28:52;1.63;;;0.70;;
60730;SDS011;46580;52.114;11.674;2023-02-26T01:34:14;4.57;;;0.80;;
60730;SDS011;46580;52.114;11.674;2023-02-26T01:36:55;5.70;;;0.98;;
60730;SDS011;46580;52.114;11.674;2023-02-26T01:39:38;1.17;;;0.67;;
60730;SDS011;46580;52.114;11.674;2023-02-26T01:42:18;1.03;;;0.50;;
60730;SDS011;46580;52.114;11.674;2023-02-26T01:44:55;1.23;;;0.60;;
60730;SDS011;46580;52.114;11.674;2023-02-26T01:47:28;2.57;;;0.70;;
60730;SDS011;46580;52.114;11.674;2023-02-26T01:50:05;2.20;;;0.90;;
60730;SDS011;46580;52.114;11.674;2023-02-26T01:55:13;3.60;;;0.85;;
60730;SDS011;46580;52.114;11.674;2023-02-26T01:57:40;1.77;;;0.50;;
60730;SDS011;46580;52.114;11.674;2023-02-26T02:00:05;4.23;;;0.60;;
60730;SDS011;46580;52.114;11.674;2023-02-26T02:02:33;2.87;;;0.67;;
60730;SDS011;46580;52.114;11.674;2023-02-26T02:05:01;3.30;;;0.57;;
60730;SDS011;46580;52.114;11.674;2023-02-26T02:07:28;1.63;;;0.60;;
60730;SDS011;46580;52.114;11.674;2023-02-26T02:09:54;0.93;;;0.83;;
60730;SDS011;46580;52.114;11.674;2023-02-26T02:15:06;2.57;;;0.67;;
60730;SDS011;46580;52.114;11.674;2023-02-26T02:17:49;0.93;;;0.20;;
60730;SDS011;46580;52.114;11.674;2023-02-26T02:28:39;1.13;;;0.80;;
60730;SDS011;46580;52.114;11.674;2023-02-26T02:31:27;2.57;;;0.40;;
60730;SDS011;46580;52.114;11.674;2023-02-26T02:34:03;0.70;;;0.70;;
60730;SDS011;46580;52.114;11.674;2023-02-26T02:39:05;2.43;;;0.50;;
60730;SDS011;46580;52.114;11.674;2023-02-26T02:41:38;0.40;;;0.30;;
60730;SDS011;46580;52.114;11.674;2023-02-26T02:44:10;1.67;;;0.50;;
60730;SDS011;46580;52.114;11.674;2023-02-26T02:46:39;3.67;;;0.63;;
60730;SDS011;46580;52.114;11.674;2023-02-26T02:49:08;0.80;;;0.67;;
60730;SDS011;46580;52.114;11.674;2023-02-26T02:51:40;1.98;;;0.90;;
60730;SDS011;46580;52.114;11.674;2023-02-26T02:59:31;3.40;;;0.73;;
60730;SDS011;46580;52.114;11.674;2023-02-26T03:02:05;2.53;;;0.60;;
60730;SDS011;46580;52.114;11.674;2023-02-26T03:04:35;1.13;;;0.55;;
60730;SDS011;46580;52.114;11.674;2023-02-26T03:07:02;3.17;;;0.70;;
60730;SDS011;46580;52.114;11.674;2023-02-26T03:09:27;1.17;;;0.93;;
60730;SDS011;46580;52.114;11.674;2023-02-26T03:11:52;4.80;;;0.57;;
60730;SDS011;46580;52.114;11.674;2023-02-26T03:14:18;2.30;;;0.60;;
60730;SDS011;46580;52.114;11.674;2023-02-26T03:19:23;0.63;;;0.20;;
60730;SDS011;46580;52.114;11.674;2023-02-26T03:24:28;2.80;;;0.77;;
60730;SDS011;46580;52.114;11.674;2023-02-26T03:27:10;0.60;;;0.40;;
60730;SDS011;46580;52.114;11.674;2023-02-26T03:32:32;3.60;;;1.03;;
60730;SDS011;46580;52.114;11.674;2023-02-26T03:35:10;3.50;;;0.70;;
60730;SDS011;46580;52.114;11.674;2023-02-26T03:37:51;0.73;;;0.67;;
60730;SDS011;46580;52.114;11.674;2023-02-26T03:40:23;3.50;;;0.77;;
60730;SDS011;46580;52.114;11.674;2023-02-26T03:42:54;1.75;;;0.85;;
60730;SDS011;46580;52.114;11.674;2023-02-26T03:45:26;2.87;;;0.57;;
60730;SDS011;46580;52.114;11.674;2023-02-26T03:47:57;2.53;;;0.43;;
60730;SDS011;46580;52.114;11.674;2023-02-26T03:50:34;2.23;;;0.57;;
60730;SDS011;46580;52.114;11.674;2023-02-26T03:53:05;1.37;;;0.90;;
60730;SDS011;46580;52.114;11.674;2023-02-26T03:55:43;1.33;;;0.40;;
60730;SDS011;46580;52.114;11.674;2023-02-26T03:58:15;4.43;;;1.13;;
60730;SDS011;46580;52.114;11.674;2023-02-26T04:00:41;1.73;;;0.40;;
60730;SDS011;46580;52.114;11.674;2023-02-26T04:03:16;1.27;;;0.33;;
60730;SDS011;46580;52.114;11.674;2023-02-26T04:05:49;1.53;;;0.70;;
60730;SDS011;46580;52.114;11.674;2023-02-26T04:08:17;1.45;;;0.47;;
60730;SDS011;46580;52.114;11.674;2023-02-26T04:10:51;0.87;;;0.47;;
60730;SDS011;46580;52.114;11.674;2023-02-26T04:13:20;0.70;;;0.50;;
60730;SDS011;46580;52.114;11.674;2023-02-26T04:15:45;1.27;;;0.57;;
60730;SDS011;46580;52.114;11.674;2023-02-26T04:18:11;2.53;;;0.77;;
60730;SDS011;46580;52.114;11.674;2023-02-26T04:20:36;2.07;;;0.60;;
60730;SDS011;46580;52.114;11.674;2023-02-26T04:23:03;1.23;;;0.50;;
60730;SDS011;46580;52.114;11.674;2023-02-26T04:25:28;0.60;;;0.40;;
60730;SDS011;46580;52.114;11.674;2023-02-26T04:27:54;3.30;;;0.57;;
60730;SDS011;46580;52.114;11.674;2023-02-26T04:30:20;2.57;;;0.80;;
60730;SDS011;46580;52.114;11.674;2023-02-26T04:32:47;0.93;;;0.50;;
60730;SDS011;46580;52.114;11.674;2023-02-26T04:35:13;0.83;;;0.30;;
60730;SDS011;46580;52.114;11.674;2023-02-26T04:37:38;1.10;;;0.60;;
60730;SDS011;46580;52.114;11.674;2023-02-26T04:40:05;5.03;;;0.40;;
60730;SDS011;46580;52.114;11.674;2023-02-26T04:42:31;2.10;;;0.80;;
60730;SDS011;46580;52.114;11.674;2023-02-26T04:44:57;2.30;;;0.50;;
60730;SDS011;46580;52.114;11.674;2023-02-26T04:47:22;1.83;;;0.87;;
60730;SDS011;46580;52.114;11.674;2023-02-26T04:49:47;0.47;;;0.30;;
60730;SDS011;46580;52.114;11.674;2023-02-26T04:52:13;0.80;;;0.80;;
60730;SDS011;46580;52.114;11.674;2023-02-26T04:54:38;3.90;;;0.80;;
60730;SDS011;46580;52.114;11.674;2023-02-26T04:57:05;2.30;;;0.50;;
60730;SDS011;46580;52.114;11.674;2023-02-26T04:59:30;1.47;;;0.57;;
60730;SDS011;46580;52.114;11.674;2023-02-26T05:01:55;2.83;;;0.90;;
60730;SDS011;46580;52.114;11.674;2023-02-26T05:04:21;2.77;;;0.30;;
60730;SDS011;46580;52.114;11.674;2023-02-26T05:06:46;2.40;;;0.80;;
60730;SDS011;46580;52.114;11.674;2023-02-26T05:09:11;1.10;;;0.40;;
60730;SDS011;46580;52.114;11.674;2023-02-26T05:11:37;3.10;;;0.57;;
60730;SDS011;46580;52.114;11.674;2023-02-26T05:14:02;5.30;;;1.10;;
60730;SDS011;46580;52.114;11.674;2023-02-26T05:16:29;2.30;;;0.57;;
60730;SDS011;46580;52.114;11.674;2023-02-26T05:18:54;2.00;;;0.60;;
60730;SDS011;46580;52.114;11.674;2023-02-26T05:21:19;8.50;;;0.93;;
60730;SDS011;46580;52.114;11.674;2023-02-26T05:23:45;3.03;;;0.43;;
60730;SDS011;46580;52.114;11.674;2023-02-26T05:26:12;2.00;;;0.50;;
60730;SDS011;46580;52.114;11.674;2023-02-26T05:28:39;2.80;;;0.30;;
60730;SDS011;46580;52.114;11.674;2023-02-26T05:31:05;0.77;;;0.30;;
60730;SDS011;46580;52.114;11.674;2023-02-26T05:33:30;0.77;;;0.50;;
60730;SDS011;46580;52.114;11.674;2023-02-26T05:35:57;0.47;;;0.30;;
60730;SDS011;46580;52.114;11.674;2023-02-26T05:38:22;3.40;;;0.80;;
60730;SDS011;46580;52.114;11.674;2023-02-26T05:40:48;4.97;;;0.50;;
60730;SDS011;46580;52.114;11.674;2023-02-26T05:43:15;1.17;;;0.40;;
60730;SDS011;46580;52.114;11.674;2023-02-26T05:45:41;2.23;;;0.73;;
60730;SDS011;46580;52.114;11.674;2023-02-26T05:48:06;0.60;;;0.40;;
60730;SDS011;46580;52.114;11.674;2023-02-26T05:50:32;1.60;;;0.30;;
60730;SDS011;46580;52.114;11.674;2023-02-26T05:52:59;1.27;;;0.70;;
60730;SDS011;46580;52.114;11.674;2023-02-26T05:55:25;1.70;;;0.60;;
60730;SDS011;46580;52.114;11.674;2023-02-26T05:57:50;1.03;;;0.70;;
60730;SDS011;46580;52.114;11.674;2023-02-26T06:00:16;0.57;;;0.40;;
60730;SDS011;46580;52.114;11.674;2023-02-26T06:02:42;1.67;;;0.30;;
60730;SDS011;46580;52.114;11.674;2023-02-26T06:05:07;0.87;;;0.40;;
60730;SDS011;46580;52.114;11.674;2023-02-26T06:07:33;0.50;;;0.40;;
60730;SDS011;46580;52.114;11.674;2023-02-26T06:09:59;1.77;;;0.40;;
60730;SDS011;46580;52.114;11.674;2023-02-26T06:12:25;1.80;;;0.47;;
60730;SDS011;46580;52.114;11.674;2023-02-26T06:14:50;0.30;;;0.23;;
60730;SDS011;46580;52.114;11.674;2023-02-26T06:17:15;1.97;;;0.30;;
60730;SDS011;46580;52.114;11.674;2023-02-26T06:19:41;0.83;;;0.40;;
60730;SDS011;46580;52.114;11.674;2023-02-26T06:22:06;0.90;;;0.40;;
60730;SDS011;46580;52.114;11.674;2023-02-26T06:24:31;0.30;;;0.23;;
60730;SDS011;46580;52.114;11.674;2023-02-26T06:26:57;3.13;;;0.50;;
60730;SDS011;46580;52.114;11.674;2023-02-26T06:29:25;0.70;;;0.30;;
60730;SDS011;46580;52.114;11.674;2023-02-26T06:31:50;2.93;;;0.57;;
60730;SDS011;46580;52.114;11.674;2023-02-26T06:34:16;1.80;;;0.33;;
60730;SDS011;46580;52.114;11.674;2023-02-26T06:36:43;2.50;;;0.50;;
60730;SDS011;46580;52.114;11.674;2023-02-26T06:39:11;2.80;;;0.60;;
60730;SDS011;46580;52.114;11.674;2023-02-26T06:41:39;1.80;;;0.40;;
60730;SDS011;46580;52.114;11.674;2023-02-26T06:44:04;1.30;;;0.97;;
60730;SDS011;46580;52.114;11.674;2023-02-26T06:46:30;1.00;;;0.67;;
60730;SDS011;46580;52.114;11.674;2023-02-26T06:48:56;0.50;;;0.32;;
60730;SDS011;46580;52.114;11.674;2023-02-26T06:51:22;2.57;;;0.60;;
60730;SDS011;46580;52.114;11.674;2023-02-26T06:53:47;2.63;;;0.63;;
60730;SDS011;46580;52.114;11.674;2023-02-26T06:56:13;1.23;;;0.43;;
60730;SDS011;46580;52.114;11.674;2023-02-26T06:58:39;2.20;;;0.60;;
60730;SDS011;46580;52.114;11.674;2023-02-26T07:01:04;1.23;;;0.70;;
60730;SDS011;46580;52.114;11.674;2023-02-26T07:03:30;0.40;;;0.30;;
60730;SDS011;46580;52.114;11.674;2023-02-26T07:05:56;1.17;;;0.87;;
60730;SDS011;46580;52.114;11.674;2023-02-26T07:08:21;2.37;;;0.47;;
60730;SDS011;46580;52.114;11.674;2023-02-26T07:10:47;1.13;;;0.60;;
60730;SDS011;46580;52.114;11.674;2023-02-26T07:13:14;2.33;;;0.60;;
60730;SDS011;46580;52.114;11.674;2023-02-26T07:15:39;1.27;;;0.70;;
60730;SDS011;46580;52.114;11.674;2023-02-26T07:18:05;2.40;;;0.70;;
60730;SDS011;46580;52.114;11.674;2023-02-26T07:20:30;5.33;;;0.70;;
60730;SDS011;46580;52.114;11.674;2023-02-26T07:22:58;1.83;;;0.57;;
60730;SDS011;46580;52.114;11.674;2023-02-26T07:25:23;3.70;;;0.90;;
60730;SDS011;46580;52.114;11.674;2023-02-26T07:27:49;1.30;;;0.57;;
60730;SDS011;46580;52.114;11.674;2023-02-26T07:30:15;3.23;;;0.90;;
60730;SDS011;46580;52.114;11.674;2023-02-26T07:32:41;2.03;;;0.50;;
60730;SDS011;46580;52.114;11.674;2023-02-26T07:35:07;1.10;;;0.67;;
60730;SDS011;46580;52.114;11.674;2023-02-26T07:37:33;3.90;;;0.73;;
60730;SDS011;46580;52.114;11.674;2023-02-26T07:39:59;1.17;;;0.50;;
60730;SDS011;46580;52.114;11.674;2023-02-26T07:42:25;1.10;;;0.27;;
60730;SDS011;46580;52.114;11.674;2023-02-26T07:44:51;2.07;;;0.80;;
60730;SDS011;46580;52.114;11.674;2023-02-26T07:47:16;1.40;;;0.70;;
60730;SDS011;46580;52.114;11.674;2023-02-26T07:49:42;1.93;;;0.73;;
60730;SDS011;46580;52.114;11.674;2023-02-26T07:52:08;2.80;;;0.50;;
60730;SDS011;46580;52.114;11.674;2023-02-26T07:54:34;1.60;;;0.80;;
60730;SDS011;46580;52.114;11.674;2023-02-26T07:57:00;0.87;;;0.53;;
60730;SDS011;46580;52.114;11.674;2023-02-26T07:59:26;5.10;;;0.73;;
60730;SDS011;46580;52.114;11.674;2023-02-26T08:01:51;0.80;;;0.60;;
60730;SDS011;46580;52.114;11.674;2023-02-26T08:04:17;4.13;;;0.67;;
60730;SDS011;46580;52.114;11.674;2023-02-26T08:06:44;0.73;;;0.50;;
60730;SDS011;46580;52.114;11.674;2023-02-26T08:09:11;3.50;;;0.83;;
60730;SDS011;46580;52.114;11.674;2023-02-26T08:11:37;2.60;;;0.77;;
60730;SDS011;46580;52.114;11.674;2023-02-26T08:14:05;1.20;;;0.53;;
60730;SDS011;46580;52.114;11.674;2023-02-26T08:16:31;1.13;;;0.73;;
60730;SDS011;46580;52.114;11.674;2023-02-26T08:18:57;6.87;;;0.97;;
60730;SDS011;46580;52.114;11.674;2023-02-26T08:21:22;2.53;;;0.90;;
60730;SDS011;46580;52.114;11.674;2023-02-26T08:23:50;0.30;;;0.30;;
60730;SDS011;46580;52.114;11.674;2023-02-26T08:26:16;2.77;;;0.50;;
60730;SDS011;46580;52.114;11.674;2023-02-26T08:28:43;2.23;;;0.63;;
60730;SDS011;46580;52.114;11.674;2023-02-26T08:31:10;1.10;;;0.33;;
60730;SDS011;46580;52.114;11.674;2023-02-26T08:33:37;1.80;;;0.63;;
60730;SDS011;46580;52.114;11.674;2023-02-26T08:36:03;4.50;;;0.90;;
60730;SDS011;46580;52.114;11.674;2023-02-26T08:38:29;1.07;;;0.57;;
60730;SDS011;46580;52.114;11.674;2023-02-26T08:40:55;2.30;;;0.93;;
60730;SDS011;46580;52.114;11.674;2023-02-26T08:43:21;2.20;;;0.50;;
60730;SDS011;46580;52.114;11.674;2023-02-26T08:45:47;0.60;;;0.40;;
60730;SDS011;46580;52.114;11.674;2023-02-26T08:48:13;0.77;;;0.40;;
60730;SDS011;46580;52.114;11.674;2023-02-26T08:50:39;0.60;;;0.50;;
60730;SDS011;46580;52.114;11.674;2023-02-26T08:53:05;1.23;;;0.40;;
60730;SDS011;46580;52.114;11.674;2023-02-26T08:55:31;3.60;;;0.63;;
60730;SDS011;46580;52.114;11.674;2023-02-26T08:57:57;1.20;;;0.60;;
60730;SDS011;46580;52.114;11.674;2023-02-26T09:00:23;1.17;;;0.60;;
60730;SDS011;46580;52.114;11.674;2023-02-26T09:02:48;1.60;;;0.50;;
60730;SDS011;46580;52.114;11.674;2023-02-26T09:05:15;0.30;;;0.20;;
60730;SDS011;46580;52.114;11.674;2023-02-26T09:07:41;1.57;;;0.27;;
60730;SDS011;46580;52.114;11.674;2023-02-26T09:10:07;1.47;;;0.50;;
60730;SDS011;46580;52.114;11.674;2023-02-26T09:12:34;1.37;;;0.40;;
60730;SDS011;46580;52.114;11.674;2023-02-26T09:15:05;2.77;;;0.40;;
60730;SDS011;46580;52.114;11.674;2023-02-26T09:17:32;1.50;;;0.43;;
60730;SDS011;46580;52.114;11.674;2023-02-26T09:19:58;1.07;;;0.40;;
60730;SDS011;46580;52.114;11.674;2023-02-26T09:22:25;1.67;;;0.50;;
60730;SDS011;46580;52.114;11.674;2023-02-26T09:24:51;2.53;;;0.60;;
60730;SDS011;46580;52.114;11.674;2023-02-26T09:27:16;0.30;;;0.30;;
60730;SDS011;46580;52.114;11.674;2023-02-26T09:29:42;0.67;;;0.43;;
60730;SDS011;46580;52.114;11.674;2023-02-26T09:32:07;1.50;;;0.43;;
60730;SDS011;46580;52.114;11.674;2023-02-26T09:34:33;0.60;;;0.30;;
60730;SDS011;46580;52.114;11.674;2023-02-26T09:36:59;3.03;;;0.67;;
60730;SDS011;46580;52.114;11.674;2023-02-26T09:39:25;1.50;;;0.67;;
60730;SDS011;46580;52.114;11.674;2023-02-26T09:41:52;2.57;;;0.20;;
60730;SDS011;46580;52.114;11.674;2023-02-26T09:44:23;1.90;;;0.50;;
60730;SDS011;46580;52.114;11.674;2023-02-26T09:47:04;0.50;;;0.17;;
60730;SDS011;46580;52.114;11.674;2023-02-26T09:52:35;0.30;;;0.30;;
60730;SDS011;46580;52.114;11.674;2023-02-26T09:58:04;0.00;;;0.00;;
60730;SDS011;46580;52.114;11.674;2023-02-26T10:00:48;0.77;;;0.23;;
60730;SDS011;46580;52.114;11.674;2023-02-26T10:03:22;0.40;;;0.30;;
60730;SDS011;46580;52.114;11.674;2023-02-26T10:08:43;2.07;;;0.50;;
60730;SDS011;46580;52.114;11.674;2023-02-26T10:11:45;1.40;;;0.30;;
60730;SDS011;46580;52.114;11.674;2023-02-26T10:14:23;0.67;;;0.30;;
60730;SDS011;46580;52.114;11.674;2023-02-26T10:17:05;0.30;;;0.30;;
60730;SDS011;46580;52.114;11.674;2023-02-26T10:20:18;0.20;;;0.13;;
60730;SDS011;46580;52.114;11.674;2023-02-26T10:22:56;2.03;;;0.13;;
60730;SDS011;46580;52.114;11.674;2023-02-26T10:25:41;2.67;;;0.47;;
60730;SDS011;46580;52.114;11.674;2023-02-26T10:31:14;0.73;;;0.20;;
60730;SDS011;46580;52.114;11.674;2023-02-26T10:36:57;0.40;;;0.40;;
60730;SDS011;46580;52.114;11.674;2023-02-26T10:39:23;1.03;;;0.10;;
60730;SDS011;46580;52.114;11.674;2023-02-26T10:41:55;1.10;;;0.40;;
60730;SDS011;46580;52.114;11.674;2023-02-26T10:44:35;2.97;;;0.40;;
60730;SDS011;46580;52.114;11.674;2023-02-26T10:47:18;2.70;;;0.20;;
60730;SDS011;46580;52.114;11.674;2023-02-26T10:49:53;1.50;;;0.50;;
60730;SDS011;46580;52.114;11.674;2023-02-26T10:52:27;1.23;;;0.60;;
60730;SDS011;46580;52.114;11.674;2023-02-26T10:57:27;1.37;;;0.80;;
60730;SDS011;46580;52.114;11.674;2023-02-26T11:00:02;1.40;;;0.33;;
60730;SDS011;46580;52.114;11.674;2023-02-26T11:02:34;1.53;;;0.30;;
60730;SDS011;46580;52.114;11.674;2023-02-26T11:05:01;1.43;;;0.70;;
60730;SDS011;46580;52.114;11.674;2023-02-26T11:07:28;1.80;;;0.53;;
60730;SDS011;46580;52.114;11.674;2023-02-26T11:09:55;1.37;;;0.53;;
60730;SDS011;46580;52.114;11.674;2023-02-26T11:12:21;1.47;;;0.47;;
60730;SDS011;46580;52.114;11.674;2023-02-26T11:14:48;2.47;;;0.83;;
60730;SDS011;46580;52.114;11.674;2023-02-26T11:17:24;3.03;;;0.60;;
60730;SDS011;46580;52.114;11.674;2023-02-26T11:20:36;1.40;;;0.47;;
60730;SDS011;46580;52.114;11.674;2023-02-26T11:22:51;2.03;;;0.33;;
60730;SDS011;46580;52.114;11.674;2023-02-26T11:25:22;1.73;;;0.53;;
60730;SDS011;46580;52.114;11.674;2023-02-26T11:27:49;1.63;;;0.70;;
60730;SDS011;46580;52.114;11.674;2023-02-26T11:30:24;0.37;;;0.30;;
60730;SDS011;46580;52.114;11.674;2023-02-26T11:32:52;1.07;;;0.27;;
60730;SDS011;46580;52.114;11.674;2023-02-26T11:35:22;0.50;;;0.30;;
60730;SDS011;46580;52.114;11.674;2023-02-26T11:37:49;0.73;;;0.53;;
60730;SDS011;46580;52.114;11.674;2023-02-26T11:40:33;0.20;;;0.10;;
60730;SDS011;46580;52.114;11.674;2023-02-26T11:43:03;1.07;;;0.30;;
60730;SDS011;46580;52.114;11.674;2023-02-26T11:45:32;1.80;;;0.40;;
60730;SDS011;46580;52.114;11.674;2023-02-26T11:48:02;0.97;;;0.40;;
60730;SDS011;46580;52.114;11.674;2023-02-26T11:50:31;0.60;;;0.23;;
60730;SDS011;46580;52.114;11.674;2023-02-26T11:53:04;1.07;;;0.30;;
60730;SDS011;46580;52.114;11.674;2023-02-26T11:55:36;1.73;;;0.40;;
60730;SDS011;46580;52.114;11.674;2023-02-26T11:58:18;0.20;;;0.10;;
60730;SDS011;46580;52.114;11.674;2023-02-26T12:00:46;0.30;;;0.27;;
60730;SDS011;46580;52.114;11.674;2023-02-26T12:03:19;0.20;;;0.10;;
60730;SDS011;46580;52.114;11.674;2023-02-26T12:05:46;0.73;;;0.20;;
60730;SDS011;46580;52.114;11.674;2023-02-26T12:08:15;1.83;;;0.20;;
60730;SDS011;46580;52.114;11.674;2023-02-26T12:10:54;1.70;;;0.30;;
60730;SDS011;46580;52.114;11.674;2023-02-26T12:13:39;0.13;;;0.10;;
60730;SDS011;46580;52.114;11.674;2023-02-26T12:22:20;2.20;;;0.40;;
60730;SDS011;46580;52.114;11.674;2023-02-26T12:28:06;0.33;;;0.30;;
60730;SDS011;46580;52.114;11.674;2023-02-26T12:33:27;0.30;;;0.30;;
60730;SDS011;46580;52.114;11.674;2023-02-26T12:36:23;0.10;;;0.10;;
60730;SDS011;46580;52.114;11.674;2023-02-26T12:50:41;1.17;;;1.07;;
60730;SDS011;46580;52.114;11.674;2023-02-26T12:58:51;1.07;;;0.20;;
60730;SDS011;46580;52.114;11.674;2023-02-26T13:05:03;0.97;;;0.17;;
60730;SDS011;46580;52.114;11.674;2023-02-26T13:10:36;0.30;;;0.30;;
60730;SDS011;46580;52.114;11.674;2023-02-26T13:21:28;0.20;;;0.20;;
60730;SDS011;46580;52.114;11.674;2023-02-26T13:24:19;0.67;;;0.47;;
60730;SDS011;46580;52.114;11.674;2023-02-26T13:26:46;1.80;;;0.60;;
60730;SDS011;46580;52.114;11.674;2023-02-26T13:29:36;0.20;;;0.20;;
60730;SDS011;46580;52.114;11.674;2023-02-26T13:32:07;0.40;;;0.30;;
60730;SDS011;46580;52.114;11.674;2023-02-26T13:35:28;0.70;;;0.20;;
60730;SDS011;46580;52.114;11.674;2023-02-26T13:41:11;1.43;;;0.40;;
60730;SDS011;46580;52.114;11.674;2023-02-26T13:54:02;0.57;;;0.40;;
60730;SDS011;46580;52.114;11.674;2023-02-26T13:59:04;0.67;;;0.27;;
60730;SDS011;46580;52.114;11.674;2023-02-26T14:01:49;0.77;;;0.30;;
60730;SDS011;46580;52.114;11.674;2023-02-26T14:06:46;0.97;;;0.20;;
60730;SDS011;46580;52.114;11.674;2023-02-26T14:12:03;2.93;;;0.50;;
60730;SDS011;46580;52.114;11.674;2023-02-26T14:20:11;2.33;;;0.50;;
60730;SDS011;46580;52.114;11.674;2023-02-26T14:22:41;0.53;;;0.40;;
60730;SDS011;46580;52.114;11.674;2023-02-26T14:25:26;0.80;;;0.20;;
60730;SDS011;46580;52.114;11.674;2023-02-26T14:31:16;1.77;;;0.70;;
60730;SDS011;46580;52.114;11.674;2023-02-26T14:33:59;1.00;;;0.70;;
60730;SDS011;46580;52.114;11.674;2023-02-26T14:36:41;0.90;;;0.70;;
60730;SDS011;46580;52.114;11.674;2023-02-26T14:39:18;2.10;;;0.57;;
60730;SDS011;46580;52.114;11.674;2023-02-26T14:41:49;0.63;;;0.30;;
60730;SDS011;46580;52.114;11.674;2023-02-26T14:44:21;3.00;;;0.40;;
60730;SDS011;46580;52.114;11.674;2023-02-26T14:46:49;0.90;;;0.47;;
60730;SDS011;46580;52.114;11.674;2023-02-26T14:49:28;1.37;;;0.70;;
60730;SDS011;46580;52.114;11.674;2023-02-26T15:00:39;3.40;;;2.13;;
60730;SDS011;46580;52.114;11.674;2023-02-26T15:17:32;4.27;;;2.63;;
60730;SDS011;46580;52.114;11.674;2023-02-26T15:25:45;6.50;;;3.67;;
60730;SDS011;46580;52.114;11.674;2023-02-26T15:28:26;1.53;;;0.80;;
60730;SDS011;46580;52.114;11.674;2023-02-26T15:30:54;0.77;;;0.60;;
60730;SDS011;46580;52.114;11.674;2023-02-26T15:33:23;2.97;;;1.90;;
60730;SDS011;46580;52.114;11.674;2023-02-26T15:35:52;1.90;;;0.80;;
60730;SDS011;46580;52.114;11.674;2023-02-26T15:38:19;3.67;;;1.23;;
60730;SDS011;46580;52.114;11.674;2023-02-26T15:40:45;4.13;;;2.53;;
60730;SDS011;46580;52.114;11.674;2023-02-26T15:43:14;3.50;;;1.80;;
60730;SDS011;46580;52.114;11.674;2023-02-26T15:45:44;6.43;;;2.30;;
60730;SDS011;46580;52.114;11.674;2023-02-26T15:48:15;1.20;;;0.80;;
60730;SDS011;46580;52.114;11.674;2023-02-26T15:50:47;4.23;;;1.10;;
60730;SDS011;46580;52.114;11.674;2023-02-26T15:53:19;1.80;;;1.23;;
60730;SDS011;46580;52.114;11.674;2023-02-26T15:55:53;3.10;;;1.00;;
60730;SDS011;46580;52.114;11.674;2023-02-26T15:58:22;3.10;;;0.73;;
60730;SDS011;46580;52.114;11.674;2023-02-26T16:01:01;2.00;;;1.20;;
60730;SDS011;46580;52.114;11.674;2023-02-26T16:03:29;0.90;;;0.63;;
60730;SDS011;46580;52.114;11.674;2023-02-26T16:05:57;1.37;;;0.80;;
60730;SDS011;46580;52.114;11.674;2023-02-26T16:08:24;2.23;;;1.10;;
60730;SDS011;46580;52.114;11.674;2023-02-26T16:10:50;8.43;;;3.43;;
60730;SDS011;46580;52.114;11.674;2023-02-26T16:13:22;9.83;;;3.80;;
60730;SDS011;46580;52.114;11.674;2023-02-26T16:15:53;11.10;;;4.03;;
60730;SDS011;46580;52.114;11.674;2023-02-26T16:18:23;4.57;;;1.90;;
60730;SDS011;46580;52.114;11.674;2023-02-26T16:20:52;3.77;;;1.80;;
60730;SDS011;46580;52.114;11.674;2023-02-26T16:23:23;11.23;;;5.17;;
60730;SDS011;46580;52.114;11.674;2023-02-26T16:25:59;2.67;;;2.10;;
60730;SDS011;46580;52.114;11.674;2023-02-26T16:28:30;1.77;;;0.97;;
60730;SDS011;46580;52.114;11.674;2023-02-26T16:30:59;1.70;;;1.17;;
60730;SDS011;46580;52.114;11.674;2023-02-26T16:33:30;4.70;;;2.20;;
60730;SDS011;46580;52.114;11.674;2023-02-26T16:36:05;1.67;;;0.90;;
60730;SDS011;46580;52.114;11.674;2023-02-26T16:41:11;16.13;;;9.20;;
60730;SDS011;46580;52.114;11.674;2023-02-26T16:46:06;19.13;;;9.97;;
60730;SDS011;46580;52.114;11.674;2023-02-26T16:48:36;9.13;;;4.30;;
60730;SDS011;46580;52.114;11.674;2023-02-26T16:51:09;5.70;;;3.03;;
60730;SDS011;46580;52.114;11.674;2023-02-26T16:53:42;4.67;;;2.70;;
60730;SDS011;46580;52.114;11.674;2023-02-26T16:56:15;1.57;;;1.10;;
60730;SDS011;46580;52.114;11.674;2023-02-26T16:58:46;3.77;;;2.57;;
60730;SDS011;46580;52.114;11.674;2023-02-26T17:01:16;4.47;;;2.10;;
60730;SDS011;46580;52.114;11.674;2023-02-26T17:03:45;7.87;;;3.63;;
60730;SDS011;46580;52.114;11.674;2023-02-26T17:06:14;3.83;;;2.40;;
60730;SDS011;46580;52.114;11.674;2023-02-26T17:08:51;2.33;;;1.40;;
60730;SDS011;46580;52.114;11.674;2023-02-26T17:11:20;2.43;;;1.00;;
60730;SDS011;46580;52.114;11.674;2023-02-26T17:14:02;2.00;;;1.20;;
60730;SDS011;46580;52.114;11.674;2023-02-26T17:16:33;1.20;;;1.10;;
60730;SDS011;46580;52.114;11.674;2023-02-26T17:18:59;1.90;;;0.90;;
60730;SDS011;46580;52.114;11.674;2023-02-26T17:21:26;3.20;;;0.80;;
60730;SDS011;46580;52.114;11.674;2023-02-26T17:23:52;2.70;;;0.50;;
60730;SDS011;46580;52.114;11.674;2023-02-26T17:26:18;1.17;;;0.47;;
60730;SDS011;46580;52.114;11.674;2023-02-26T17:28:47;1.03;;;0.70;;
60730;SDS011;46580;52.114;11.674;2023-02-26T17:31:13;1.30;;;0.90;;
60730;SDS011;46580;52.114;11.674;2023-02-26T17:33:40;1.70;;;0.73;;